createdAt,value
2022-08-26T00:02:37.242Z,7.38
2022-08-26T00:07:40.037Z,7.63
2022-08-26T00:12:46.177Z,8.00
2022-08-26T00:17:50.194Z,7.50
2022-08-26T00:22:53.143Z,7.30
2022-08-26T00:27:55.812Z,7.15
2022-08-26T00:32:59.064Z,7.72
2022-08-26T00:38:02.548Z,8.05
2022-08-26T00:43:09.343Z,8.30
2022-08-26T00:48:13.612Z,11.77
2022-08-26T00:53:24.025Z,16.42
2022-08-26T00:58:29.953Z,14.65
2022-08-26T01:03:34.541Z,10.55
2022-08-26T01:08:37.503Z,8.80
2022-08-26T01:13:40.711Z,8.43
2022-08-26T01:18:44.643Z,10.10
2022-08-26T01:23:50.073Z,8.65
2022-08-26T01:28:55.487Z,7.95
2022-08-26T01:34:04.802Z,7.10
2022-08-26T01:39:08.091Z,6.97
2022-08-26T01:44:17.096Z,7.03
2022-08-26T01:49:21.301Z,7.28
2022-08-26T01:54:26.017Z,8.35
2022-08-26T01:59:30.177Z,8.15
2022-08-26T02:04:43.337Z,7.93
2022-08-26T02:09:46.271Z,6.93
2022-08-26T02:14:53.773Z,7.50
2022-08-26T02:19:57.175Z,5.95
2022-08-26T02:25:07.153Z,6.18
2022-08-26T02:30:18.107Z,6.90
2022-08-26T02:35:22.375Z,6.07
2022-08-26T02:40:29.237Z,6.00
2022-08-26T02:45:32.938Z,6.63
2022-08-26T02:50:35.848Z,6.07
2022-08-26T02:55:38.765Z,7.22
2022-08-26T03:00:53.124Z,6.72
2022-08-26T03:05:56.647Z,6.57
2022-08-26T03:10:59.466Z,6.57
2022-08-26T03:16:05.292Z,6.38
2022-08-26T03:21:10.956Z,6.72
2022-08-26T03:26:16.121Z,5.88
2022-08-26T03:31:18.885Z,5.50
2022-08-26T03:36:27.565Z,5.93
2022-08-26T03:41:32.652Z,6.13
2022-08-26T03:46:35.398Z,6.43
2022-08-26T03:51:39.037Z,7.05
2022-08-26T03:56:41.853Z,6.70
2022-08-26T04:01:44.557Z,6.75
2022-08-26T04:06:47.387Z,7.40
2022-08-26T04:11:50.674Z,6.80
2022-08-26T04:16:55.242Z,7.57
2022-08-26T04:21:58.808Z,7.97
2022-08-26T04:27:03.606Z,7.43
2022-08-26T04:32:08.592Z,5.93
2022-08-26T04:37:12.105Z,6.57
2022-08-26T04:42:17.964Z,6.90
2022-08-26T04:47:29.189Z,7.88
2022-08-26T04:52:36.269Z,8.77
2022-08-26T04:57:39.958Z,8.32
2022-08-26T05:02:43.254Z,8.35
2022-08-26T05:07:45.949Z,8.20
2022-08-26T05:12:48.962Z,7.57
2022-08-26T05:17:51.999Z,7.50
2022-08-26T05:22:54.734Z,6.80
2022-08-26T05:27:57.756Z,6.43
2022-08-26T05:33:01.598Z,7.05
2022-08-26T05:38:13.332Z,8.00
2022-08-26T05:43:16.881Z,6.57
2022-08-26T05:48:24.393Z,7.00
2022-08-26T05:53:27.364Z,6.10
2022-08-26T05:58:30.131Z,5.32
2022-08-26T06:03:36.020Z,5.25
2022-08-26T06:08:39.906Z,5.57
2022-08-26T06:13:43.715Z,4.40
2022-08-26T06:18:47.496Z,4.78
2022-08-26T06:24:11.689Z,4.72
2022-08-26T06:29:16.407Z,3.55
2022-08-26T06:34:30.914Z,4.05
2022-08-26T06:39:33.873Z,4.25
2022-08-26T06:44:36.665Z,3.80
2022-08-26T06:49:39.790Z,4.10
2022-08-26T06:54:43.261Z,4.10
2022-08-26T06:59:48.114Z,3.25
2022-08-26T07:04:53.960Z,2.88
2022-08-26T07:09:59.889Z,3.58
2022-08-26T07:15:02.659Z,4.07
2022-08-26T07:20:08.417Z,3.40
2022-08-26T07:25:11.454Z,3.30
2022-08-26T07:30:14.928Z,3.78
2022-08-26T07:35:18.018Z,1.75
2022-08-26T07:40:20.861Z,1.67
2022-08-26T07:45:24.236Z,2.30
2022-08-26T07:50:34.186Z,1.85
2022-08-26T07:55:50.751Z,2.58
2022-08-26T08:00:53.525Z,1.80
2022-08-26T08:05:56.535Z,1.75
2022-08-26T08:10:59.620Z,3.20
2022-08-26T08:16:02.566Z,2.22
2022-08-26T08:21:21.330Z,4.05
2022-08-26T08:26:26.374Z,1.88
2022-08-26T08:31:56.097Z,2.35
2022-08-26T08:36:55.634Z,3.10
2022-08-26T08:42:23.694Z,1.83
2022-08-26T08:47:47.532Z,4.07
2022-08-26T08:53:05.794Z,2.38
2022-08-26T08:58:19.215Z,2.80
2022-08-26T09:03:38.202Z,2.40
2022-08-26T09:08:41.592Z,2.30
2022-08-26T09:13:50.610Z,4.00
2022-08-26T09:18:56.286Z,2.90
2022-08-26T09:23:59.404Z,2.83
2022-08-26T09:29:08.717Z,2.08
2022-08-26T09:34:27.345Z,2.63
2022-08-26T09:39:40.037Z,3.15
2022-08-26T09:44:55.774Z,3.33
2022-08-26T09:50:04.695Z,3.05
2022-08-26T09:55:20.269Z,2.42
2022-08-26T10:00:41.155Z,3.00
2022-08-26T10:06:01.426Z,1.92
2022-08-26T10:11:17.195Z,2.08
2022-08-26T10:16:26.211Z,1.95
2022-08-26T10:21:37.919Z,2.72
2022-08-26T10:27:01.023Z,2.30
2022-08-26T10:32:16.863Z,1.73
2022-08-26T10:37:21.810Z,1.27
2022-08-26T10:42:30.438Z,3.22
2022-08-26T10:47:50.623Z,2.40
2022-08-26T10:53:25.324Z,2.03
2022-08-26T10:58:50.839Z,1.15
2022-08-26T11:04:23.772Z,1.95
2022-08-26T11:09:45.354Z,2.00
2022-08-26T11:14:58.462Z,2.00
2022-08-26T11:20:09.005Z,1.70
2022-08-26T11:25:20.659Z,1.40
2022-08-26T11:30:24.137Z,1.70
2022-08-26T11:35:38.824Z,1.58
2022-08-26T11:40:42.508Z,1.98
2022-08-26T11:45:48.084Z,1.33
2022-08-26T11:51:02.192Z,2.05
2022-08-26T11:56:11.584Z,1.45
2022-08-26T12:01:32.582Z,2.28
2022-08-26T12:06:47.001Z,1.42
2022-08-26T12:11:49.728Z,1.48
2022-08-26T12:16:54.213Z,1.98
2022-08-26T12:22:27.119Z,1.63
2022-08-26T12:27:31.101Z,1.63
2022-08-26T12:32:35.183Z,1.20
2022-08-26T12:37:41.053Z,1.63
2022-08-26T12:42:46.997Z,1.20
2022-08-26T12:47:56.643Z,1.90
2022-08-26T12:53:02.287Z,1.75
2022-08-26T12:58:15.736Z,1.30
2022-08-26T13:03:37.781Z,1.30
2022-08-26T13:08:46.084Z,1.58
2022-08-26T13:13:51.924Z,1.75
2022-08-26T13:18:59.245Z,1.88
2022-08-26T13:24:13.536Z,1.73
2022-08-26T13:29:16.510Z,1.98
2022-08-26T13:34:21.570Z,2.22
2022-08-26T13:39:27.147Z,1.85
2022-08-26T13:44:30.131Z,1.30
2022-08-26T13:49:33.282Z,1.85
2022-08-26T13:54:36.309Z,1.67
2022-08-26T13:59:39.365Z,2.70
2022-08-26T14:04:43.212Z,1.80
2022-08-26T14:09:46.015Z,1.77
2022-08-26T14:14:48.845Z,2.85
2022-08-26T14:19:52.005Z,1.80
2022-08-26T14:24:56.564Z,1.90
2022-08-26T14:29:59.565Z,1.83
2022-08-26T14:35:02.696Z,1.90
2022-08-26T14:40:06.371Z,1.70
2022-08-26T14:45:13.275Z,2.05
2022-08-26T14:50:18.862Z,2.10
2022-08-26T14:55:21.617Z,2.10
2022-08-26T15:00:24.461Z,1.60
2022-08-26T15:05:27.610Z,2.17
2022-08-26T15:10:30.345Z,2.20
2022-08-26T15:15:33.218Z,3.47
2022-08-26T15:20:35.991Z,2.50
2022-08-26T15:25:38.742Z,2.45
2022-08-26T15:30:41.986Z,1.70
2022-08-26T15:35:45.155Z,1.70
2022-08-26T15:40:47.911Z,1.80
2022-08-26T15:45:50.672Z,2.47
2022-08-26T15:50:59.659Z,2.20
2022-08-26T15:56:02.540Z,1.60
2022-08-26T16:01:06.579Z,2.08
2022-08-26T16:06:10.346Z,2.50
2022-08-26T16:11:14.063Z,2.20
2022-08-26T16:16:17.152Z,1.67
2022-08-26T16:21:22.848Z,1.90
2022-08-26T16:26:29.205Z,1.63
2022-08-26T16:31:32.048Z,2.42
2022-08-26T16:36:38.679Z,1.70
2022-08-26T16:41:41.785Z,1.65
2022-08-26T16:46:45.680Z,2.40
2022-08-26T16:51:48.549Z,2.00
2022-08-26T16:56:51.331Z,1.90
2022-08-26T17:01:54.238Z,2.88
2022-08-26T17:06:57.056Z,2.63
2022-08-26T17:12:00.003Z,2.30
2022-08-26T17:17:03.282Z,3.20
2022-08-26T17:22:07.926Z,2.80
2022-08-26T17:27:10.624Z,3.10
2022-08-26T17:32:13.431Z,3.00
2022-08-26T17:37:16.884Z,2.85
2022-08-26T17:42:19.622Z,2.90
2022-08-26T17:47:22.348Z,3.15
2022-08-26T17:52:25.054Z,3.88
2022-08-26T17:57:27.816Z,3.50
2022-08-26T18:02:32.099Z,3.17
2022-08-26T18:07:43.744Z,3.38
2022-08-26T18:12:47.470Z,2.97
2022-08-26T18:17:50.194Z,3.08
2022-08-26T18:22:53.793Z,3.17
2022-08-26T18:27:56.600Z,3.53
2022-08-26T18:32:59.337Z,3.92
2022-08-26T18:38:11.589Z,3.40
2022-08-26T18:43:14.599Z,3.45
2022-08-26T18:48:17.301Z,3.97
2022-08-26T18:53:20.414Z,3.47
2022-08-26T18:58:23.186Z,3.13
2022-08-26T19:03:28.645Z,3.53
2022-08-26T19:08:31.415Z,3.97
2022-08-26T19:13:35.544Z,3.95
2022-08-26T19:18:38.251Z,4.30
2022-08-26T19:23:41.173Z,4.10
2022-08-26T19:28:43.967Z,4.18
2022-08-26T19:33:46.714Z,4.18
2022-08-26T19:38:49.985Z,4.30
2022-08-26T19:43:52.686Z,4.45
2022-08-26T19:48:57.619Z,3.50
2022-08-26T19:54:01.636Z,4.43
2022-08-26T19:59:04.432Z,4.15
2022-08-26T20:04:07.490Z,4.18
2022-08-26T20:09:10.260Z,4.50
2022-08-26T20:14:13.068Z,4.00
2022-08-26T20:19:37.450Z,3.88
2022-08-26T20:24:40.939Z,4.82
2022-08-26T20:29:43.684Z,4.95
2022-08-26T20:34:46.440Z,4.80
2022-08-26T20:39:49.592Z,4.60
2022-08-26T20:44:55.014Z,4.63
2022-08-26T20:49:57.952Z,4.53
2022-08-26T20:55:01.054Z,4.50
2022-08-26T21:00:06.006Z,4.32
2022-08-26T21:05:09.258Z,4.80
2022-08-26T21:10:12.911Z,5.25
2022-08-26T21:15:16.476Z,5.95
2022-08-26T21:20:19.572Z,6.20
2022-08-26T21:25:22.511Z,5.43
2022-08-26T21:30:25.288Z,6.45
2022-08-26T21:35:32.168Z,6.00
2022-08-26T21:40:38.822Z,5.30
2022-08-26T21:45:42.126Z,5.45
2022-08-26T21:50:44.940Z,5.57
2022-08-26T21:55:47.848Z,5.20
2022-08-26T22:00:51.551Z,5.30
2022-08-26T22:05:55.236Z,5.03
2022-08-26T22:10:59.740Z,5.15
2022-08-26T22:16:03.305Z,5.25
2022-08-26T22:21:08.773Z,6.50
2022-08-26T22:26:13.572Z,11.35
2022-08-26T22:31:17.649Z,7.60
2022-08-26T22:36:23.478Z,6.20
2022-08-26T22:41:26.402Z,6.10
2022-08-26T22:46:29.349Z,5.75
2022-08-26T22:51:32.207Z,6.45
2022-08-26T22:56:35.356Z,6.40
2022-08-26T23:01:40.176Z,6.57
2022-08-26T23:06:47.455Z,6.65
2022-08-26T23:11:51.028Z,6.82
2022-08-26T23:16:54.114Z,6.95
2022-08-26T23:21:56.907Z,6.47
2022-08-26T23:27:00.782Z,6.07
2022-08-26T23:32:04.731Z,6.35
2022-08-26T23:37:07.859Z,6.03
2022-08-26T23:42:10.925Z,6.07
2022-08-26T23:47:14.520Z,6.38
2022-08-26T23:52:35.606Z,5.75
2022-08-26T23:57:38.888Z,6.35
